createdAt,value
2018-07-19T00:01:04.395Z,8.00
2018-07-19T00:03:39.153Z,8.48
2018-07-19T00:06:13.845Z,8.60
2018-07-19T00:08:50.335Z,7.85
2018-07-19T00:11:25.293Z,12.75
2018-07-19T00:14:00.279Z,11.97
2018-07-19T00:16:41.753Z,8.85
2018-07-19T00:19:16.948Z,9.63
2018-07-19T00:21:51.916Z,8.53
2018-07-19T00:24:26.990Z,9.03
2018-07-19T00:27:01.539Z,8.75
2018-07-19T00:29:37.250Z,9.08
2018-07-19T00:32:11.984Z,8.40
2018-07-19T00:34:47.392Z,8.80
2018-07-19T00:37:28.657Z,8.80
2018-07-19T00:40:03.795Z,9.18
2018-07-19T00:42:38.800Z,9.65
2018-07-19T00:45:14.262Z,7.97
2018-07-19T00:47:49.109Z,9.70
2018-07-19T00:50:25.744Z,8.83
2018-07-19T00:53:02.181Z,9.30
2018-07-19T00:55:38.298Z,8.38
2018-07-19T00:58:21.427Z,11.73
2018-07-19T01:00:56.224Z,10.20
2018-07-19T01:03:32.592Z,9.88
2018-07-19T01:06:07.572Z,8.48
2018-07-19T01:08:42.353Z,11.25
2018-07-19T01:11:17.442Z,10.25
2018-07-19T01:13:54.554Z,11.05
2018-07-19T01:16:29.811Z,11.03
2018-07-19T01:19:06.620Z,10.30
2018-07-19T01:21:41.348Z,9.35
2018-07-19T01:24:16.468Z,9.00
2018-07-19T01:26:51.229Z,10.50
2018-07-19T01:29:26.043Z,8.98
2018-07-19T01:32:05.800Z,10.13
2018-07-19T01:34:42.703Z,8.73
2018-07-19T01:37:19.943Z,8.05
2018-07-19T01:39:57.094Z,9.15
2018-07-19T01:42:38.343Z,9.50
2018-07-19T01:45:14.358Z,8.50
2018-07-19T01:47:49.922Z,9.65
2018-07-19T01:50:26.787Z,10.40
2018-07-19T01:53:01.299Z,9.15
2018-07-19T01:55:37.103Z,9.95
2018-07-19T01:58:12.452Z,10.20
2018-07-19T02:00:46.864Z,10.28
2018-07-19T02:03:24.407Z,9.65
2018-07-19T02:05:59.886Z,10.60
2018-07-19T02:08:34.218Z,10.58
2018-07-19T02:11:08.494Z,10.15
2018-07-19T02:13:43.173Z,10.05
2018-07-19T02:16:17.895Z,10.88
2018-07-19T02:18:52.280Z,9.93
2018-07-19T02:21:26.686Z,8.43
2018-07-19T02:24:01.192Z,9.10
2018-07-19T02:26:35.624Z,9.05
2018-07-19T02:29:10.121Z,9.45
2018-07-19T02:31:44.463Z,9.40
2018-07-19T02:34:18.766Z,10.35
2018-07-19T02:36:53.055Z,8.88
2018-07-19T02:39:27.317Z,8.73
2018-07-19T02:42:01.629Z,8.33
2018-07-19T02:44:36.159Z,9.08
2018-07-19T02:47:11.070Z,9.00
2018-07-19T02:49:45.522Z,9.23
2018-07-19T02:52:20.155Z,9.10
2018-07-19T02:54:54.440Z,9.20
2018-07-19T02:57:28.858Z,8.35
2018-07-19T03:00:04.013Z,8.05
2018-07-19T03:02:38.401Z,8.60
2018-07-19T03:05:12.743Z,9.05
2018-07-19T03:07:47.305Z,9.00
2018-07-19T03:10:21.569Z,8.80
2018-07-19T03:12:55.806Z,8.53
2018-07-19T03:15:30.475Z,8.43
2018-07-19T03:18:04.937Z,9.33
2018-07-19T03:20:39.419Z,8.43
2018-07-19T03:23:13.807Z,9.58
2018-07-19T03:25:48.169Z,8.78
2018-07-19T03:28:22.499Z,8.65
2018-07-19T03:30:57.023Z,8.93
2018-07-19T03:33:31.211Z,8.30
2018-07-19T03:36:05.629Z,8.45
2018-07-19T03:38:39.958Z,7.65
2018-07-19T03:41:14.262Z,8.03
2018-07-19T03:43:48.581Z,8.33
2018-07-19T03:46:22.902Z,9.20
2018-07-19T03:48:57.308Z,9.10
2018-07-19T03:51:32.068Z,8.23
2018-07-19T03:54:06.543Z,8.58
2018-07-19T03:56:40.797Z,8.05
2018-07-19T03:59:15.145Z,7.62
2018-07-19T04:01:49.583Z,7.85
2018-07-19T04:04:23.803Z,7.70
2018-07-19T04:06:58.108Z,8.00
2018-07-19T04:09:32.395Z,8.43
2018-07-19T04:12:06.669Z,7.87
2018-07-19T04:14:41.082Z,9.08
2018-07-19T04:17:15.423Z,10.40
2018-07-19T04:19:49.994Z,10.10
2018-07-19T04:22:24.532Z,9.95
2018-07-19T04:24:58.927Z,8.85
2018-07-19T04:27:33.548Z,7.00
2018-07-19T04:30:07.888Z,8.18
2018-07-19T04:32:42.383Z,8.20
2018-07-19T04:35:16.757Z,7.72
2018-07-19T04:37:51.182Z,7.42
2018-07-19T04:40:25.511Z,7.90
2018-07-19T04:42:59.910Z,8.65
2018-07-19T04:45:34.380Z,8.70
2018-07-19T04:48:08.814Z,8.35
2018-07-19T04:50:43.119Z,8.33
2018-07-19T04:53:17.415Z,7.97
2018-07-19T04:55:51.803Z,7.83
2018-07-19T04:58:26.114Z,7.60
2018-07-19T05:01:00.369Z,7.53
2018-07-19T05:03:34.677Z,7.80
2018-07-19T05:06:09.097Z,7.95
2018-07-19T05:08:43.404Z,7.30
2018-07-19T05:11:17.709Z,7.28
2018-07-19T05:13:52.007Z,8.23
2018-07-19T05:16:26.223Z,8.10
2018-07-19T05:19:00.846Z,9.80
2018-07-19T05:21:35.481Z,26.75
2018-07-19T05:24:09.809Z,9.18
2018-07-19T05:26:44.199Z,9.90
2018-07-19T05:29:18.526Z,7.70
2018-07-19T05:31:52.917Z,8.43
2018-07-19T05:34:27.345Z,8.70
2018-07-19T05:37:01.591Z,9.10
2018-07-19T05:39:36.037Z,8.58
2018-07-19T05:42:10.921Z,9.80
2018-07-19T05:44:45.245Z,8.70
2018-07-19T05:47:19.696Z,9.08
2018-07-19T05:49:54.190Z,7.42
2018-07-19T05:52:28.535Z,8.53
2018-07-19T05:55:03.432Z,9.28
2018-07-19T05:57:37.765Z,9.18
2018-07-19T06:00:12.167Z,8.28
2018-07-19T06:02:46.397Z,9.25
2018-07-19T06:05:20.819Z,9.05
2018-07-19T06:07:55.016Z,8.43
2018-07-19T06:10:29.533Z,9.18
2018-07-19T06:13:04.009Z,8.65
2018-07-19T06:15:38.470Z,8.33
2018-07-19T06:18:12.907Z,9.28
2018-07-19T06:20:47.204Z,9.10
2018-07-19T06:23:21.670Z,12.80
2018-07-19T06:25:55.977Z,8.15
2018-07-19T06:28:30.320Z,24.82
2018-07-19T06:31:04.807Z,7.53
2018-07-19T06:33:39.343Z,8.23
2018-07-19T06:36:13.825Z,9.18
2018-07-19T06:38:48.219Z,8.50
2018-07-19T06:41:22.501Z,7.90
2018-07-19T06:43:56.996Z,7.65
2018-07-19T06:46:31.475Z,8.58
2018-07-19T06:49:06.349Z,8.68
2018-07-19T06:51:40.786Z,9.20
2018-07-19T06:54:15.083Z,8.38
2018-07-19T06:56:49.498Z,7.40
2018-07-19T06:59:23.785Z,7.97
2018-07-19T07:01:58.248Z,7.70
2018-07-19T07:04:32.570Z,8.43
2018-07-19T07:07:07.064Z,7.83
2018-07-19T07:09:41.506Z,7.62
2018-07-19T07:12:16.163Z,7.67
2018-07-19T07:14:50.559Z,6.75
2018-07-19T07:17:24.874Z,7.08
2018-07-19T07:19:59.057Z,8.03
2018-07-19T07:22:33.415Z,30.48
2018-07-19T07:25:07.694Z,7.35
2018-07-19T07:27:42.002Z,8.43
2018-07-19T07:30:16.379Z,7.30
2018-07-19T07:32:50.763Z,7.30
2018-07-19T07:35:25.205Z,7.30
2018-07-19T07:37:59.595Z,7.40
2018-07-19T07:40:34.028Z,7.28
2018-07-19T07:43:09.085Z,6.97
2018-07-19T07:45:43.564Z,7.20
2018-07-19T07:48:17.819Z,6.60
2018-07-19T07:50:52.229Z,6.50
2018-07-19T07:53:26.643Z,6.62
2018-07-19T07:56:01.035Z,7.62
2018-07-19T07:58:35.578Z,6.35
2018-07-19T08:01:09.854Z,6.95
2018-07-19T08:03:44.304Z,7.25
2018-07-19T08:06:18.406Z,7.50
2018-07-19T08:08:52.755Z,6.53
2018-07-19T08:11:27.065Z,6.85
2018-07-19T08:14:01.461Z,7.10
2018-07-19T08:16:35.749Z,6.60
2018-07-19T08:19:10.198Z,6.92
2018-07-19T08:21:44.603Z,7.15
2018-07-19T08:24:18.911Z,7.33
2018-07-19T08:26:53.235Z,7.55
2018-07-19T08:29:27.530Z,8.73
2018-07-19T08:32:01.886Z,6.03
2018-07-19T08:34:36.239Z,5.90
2018-07-19T08:37:10.736Z,5.97
2018-07-19T08:39:45.138Z,5.40
2018-07-19T08:42:19.597Z,5.72
2018-07-19T08:44:54.346Z,5.60
2018-07-19T08:47:28.724Z,5.00
2018-07-19T08:50:03.028Z,5.92
2018-07-19T08:52:37.308Z,5.53
2018-07-19T08:55:11.598Z,5.25
2018-07-19T08:57:45.913Z,5.12
2018-07-19T09:00:20.461Z,5.08
2018-07-19T09:02:54.727Z,5.55
2018-07-19T09:05:29.047Z,5.40
2018-07-19T09:08:03.459Z,4.97
2018-07-19T09:10:37.783Z,5.40
2018-07-19T09:13:12.099Z,5.67
2018-07-19T09:15:46.502Z,4.30
2018-07-19T09:18:20.740Z,4.72
2018-07-19T09:20:55.066Z,5.10
2018-07-19T09:23:29.466Z,4.70
2018-07-19T09:26:03.810Z,5.95
2018-07-19T09:28:38.204Z,6.83
2018-07-19T09:31:12.433Z,6.67
2018-07-19T09:33:47.096Z,8.60
2018-07-19T09:36:21.442Z,4.30
2018-07-19T09:38:55.791Z,4.85
2018-07-19T09:41:30.134Z,4.78
2018-07-19T09:44:04.608Z,4.22
2018-07-19T09:46:38.882Z,4.95
2018-07-19T09:49:13.250Z,5.50
2018-07-19T09:51:47.665Z,4.67
2018-07-19T09:54:33.645Z,4.20
2018-07-19T09:57:07.572Z,4.05
2018-07-19T09:59:42.063Z,4.90
2018-07-19T10:02:16.460Z,4.30
2018-07-19T10:04:50.790Z,4.70
2018-07-19T10:07:25.048Z,4.60
2018-07-19T10:09:59.525Z,4.40
2018-07-19T10:12:34.073Z,4.20
2018-07-19T10:15:08.387Z,4.00
2018-07-19T10:17:42.718Z,4.30
2018-07-19T10:20:17.256Z,4.10
2018-07-19T10:22:51.729Z,4.90
2018-07-19T10:25:26.194Z,5.58
2018-07-19T10:28:00.659Z,5.17
2018-07-19T10:30:35.115Z,5.15
2018-07-19T10:33:09.638Z,5.03
2018-07-19T10:35:44.043Z,5.20
2018-07-19T10:38:18.995Z,4.55
2018-07-19T10:40:53.436Z,4.83
2018-07-19T10:43:27.965Z,4.53
2018-07-19T10:46:02.538Z,4.53
2018-07-19T10:48:37.015Z,4.47
2018-07-19T10:51:11.549Z,4.90
2018-07-19T10:53:46.025Z,4.70
2018-07-19T10:56:20.416Z,4.70
2018-07-19T10:58:54.898Z,5.20
2018-07-19T11:01:29.349Z,4.47
2018-07-19T11:04:03.845Z,4.85
2018-07-19T11:06:38.148Z,4.67
2018-07-19T11:09:12.647Z,4.25
2018-07-19T11:11:46.932Z,5.20
2018-07-19T11:14:21.325Z,4.83
2018-07-19T11:16:55.643Z,4.80
2018-07-19T11:19:29.999Z,4.40
2018-07-19T11:22:04.438Z,4.95
2018-07-19T11:24:38.754Z,4.97
2018-07-19T11:27:12.986Z,5.50
2018-07-19T11:29:47.433Z,5.67
2018-07-19T11:32:21.912Z,5.65
2018-07-19T11:34:56.137Z,5.40
2018-07-19T11:37:30.507Z,4.65
2018-07-19T11:40:04.893Z,5.25
2018-07-19T11:42:39.430Z,4.47
2018-07-19T11:45:13.661Z,4.58
2018-07-19T11:47:47.977Z,4.50
2018-07-19T11:50:22.408Z,4.70
2018-07-19T11:52:56.637Z,3.87
2018-07-19T11:55:30.826Z,4.90
2018-07-19T11:58:05.217Z,4.80
2018-07-19T12:00:39.483Z,4.42
2018-07-19T12:03:13.884Z,4.50
2018-07-19T12:05:48.297Z,4.72
2018-07-19T12:08:22.584Z,4.58
2018-07-19T12:10:57.082Z,4.37
2018-07-19T12:13:31.608Z,4.60
2018-07-19T12:16:05.919Z,4.37
2018-07-19T12:18:40.230Z,4.25
2018-07-19T12:21:14.554Z,4.12
2018-07-19T12:23:48.861Z,4.42
2018-07-19T12:26:23.361Z,4.78
2018-07-19T12:28:57.666Z,4.08
2018-07-19T12:31:32.175Z,5.83
2018-07-19T12:34:06.719Z,4.35
2018-07-19T12:36:41.118Z,8.33
2018-07-19T12:39:15.578Z,4.53
2018-07-19T12:41:49.919Z,3.58
2018-07-19T12:44:24.231Z,4.20
2018-07-19T12:46:58.668Z,3.60
2018-07-19T12:49:33.144Z,3.72
2018-07-19T12:52:07.437Z,3.90
2018-07-19T12:54:42.067Z,4.35
2018-07-19T12:57:16.624Z,3.85
2018-07-19T12:59:50.992Z,3.90
2018-07-19T13:02:25.299Z,4.20
2018-07-19T13:05:00.098Z,4.00
2018-07-19T13:07:34.507Z,4.25
2018-07-19T13:10:08.947Z,4.50
2018-07-19T13:12:43.250Z,3.65
2018-07-19T13:15:17.626Z,4.00
2018-07-19T13:17:52.058Z,3.80
2018-07-19T13:20:26.451Z,3.15
2018-07-19T13:23:00.902Z,3.70
2018-07-19T13:25:35.263Z,4.22
2018-07-19T13:28:10.219Z,4.72
2018-07-19T13:30:44.604Z,5.75
2018-07-19T13:33:19.155Z,5.30
2018-07-19T13:35:53.627Z,4.15
2018-07-19T13:38:28.080Z,4.85
2018-07-19T13:41:02.543Z,4.03
2018-07-19T13:43:37.271Z,4.00
2018-07-19T13:46:12.202Z,3.90
2018-07-19T13:48:46.708Z,3.42
2018-07-19T13:51:21.270Z,4.15
2018-07-19T13:54:10.107Z,4.00
2018-07-19T13:56:44.576Z,4.00
2018-07-19T13:59:18.948Z,3.55
2018-07-19T14:01:53.316Z,3.67
2018-07-19T14:04:27.868Z,4.10
2018-07-19T14:07:02.318Z,3.90
2018-07-19T14:09:36.675Z,3.70
2018-07-19T14:12:11.400Z,3.52
2018-07-19T14:14:45.823Z,4.05
2018-07-19T14:17:20.092Z,3.77
2018-07-19T14:19:54.419Z,4.03
2018-07-19T14:22:28.827Z,4.12
2018-07-19T14:25:03.376Z,4.05
2018-07-19T14:27:37.787Z,3.70
2018-07-19T14:30:12.106Z,3.60
2018-07-19T14:32:46.531Z,3.80
2018-07-19T14:35:20.922Z,3.70
2018-07-19T14:37:55.233Z,4.05
2018-07-19T14:40:29.570Z,3.87
2018-07-19T14:43:03.875Z,4.03
2018-07-19T14:45:38.213Z,3.90
2018-07-19T14:48:12.632Z,5.75
2018-07-19T14:50:46.862Z,4.65
2018-07-19T14:53:21.101Z,3.95
2018-07-19T14:55:55.301Z,3.80
2018-07-19T14:58:29.667Z,3.35
2018-07-19T15:01:03.937Z,3.95
2018-07-19T15:03:38.421Z,3.40
2018-07-19T15:06:12.830Z,4.53
2018-07-19T15:08:47.038Z,3.80
2018-07-19T15:11:21.416Z,3.75
2018-07-19T15:13:55.808Z,3.95
2018-07-19T15:16:30.259Z,4.10
2018-07-19T15:19:04.924Z,3.70
2018-07-19T15:21:39.423Z,3.62
2018-07-19T15:24:13.823Z,4.35
2018-07-19T15:26:48.222Z,3.15
2018-07-19T15:29:22.519Z,4.30
2018-07-19T15:31:56.843Z,3.92
2018-07-19T15:34:31.193Z,4.00
2018-07-19T15:37:05.549Z,4.17
2018-07-19T15:39:39.923Z,3.50
2018-07-19T15:42:14.264Z,3.40
2018-07-19T15:44:48.543Z,3.83
2018-07-19T15:47:23.179Z,3.73
2018-07-19T15:49:57.479Z,3.90
2018-07-19T15:52:31.812Z,20.95
2018-07-19T15:55:06.199Z,4.60
2018-07-19T15:57:40.535Z,3.90
2018-07-19T16:00:14.630Z,3.40
2018-07-19T16:02:49.048Z,4.40
2018-07-19T16:05:23.524Z,4.20
2018-07-19T16:07:58.075Z,4.00
2018-07-19T16:10:32.718Z,4.20
2018-07-19T16:13:07.286Z,3.87
2018-07-19T16:15:42.311Z,4.60
2018-07-19T16:18:16.709Z,3.50
2018-07-19T16:20:51.156Z,3.53
2018-07-19T16:23:25.407Z,3.33
2018-07-19T16:25:59.790Z,4.17
2018-07-19T16:28:34.033Z,3.83
2018-07-19T16:31:08.572Z,3.87
2018-07-19T16:33:43.103Z,3.70
2018-07-19T16:36:17.510Z,3.20
2018-07-19T16:38:51.844Z,3.60
2018-07-19T16:41:26.239Z,3.40
2018-07-19T16:44:00.840Z,3.20
2018-07-19T16:46:35.269Z,3.77
2018-07-19T16:49:09.309Z,3.20
2018-07-19T16:51:43.635Z,3.70
2018-07-19T16:54:18.014Z,4.13
2018-07-19T16:56:52.282Z,6.00
2018-07-19T16:59:26.692Z,3.23
2018-07-19T17:02:01.026Z,3.33
2018-07-19T17:04:35.468Z,3.10
2018-07-19T17:07:09.795Z,3.23
2018-07-19T17:09:44.177Z,3.17
2018-07-19T17:12:18.948Z,3.10
2018-07-19T17:14:53.222Z,3.50
2018-07-19T17:17:27.641Z,4.03
2018-07-19T17:20:01.903Z,3.13
2018-07-19T17:22:36.377Z,3.30
2018-07-19T17:25:10.601Z,6.20
2018-07-19T17:27:44.861Z,3.70
2018-07-19T17:30:19.895Z,3.73
2018-07-19T17:32:54.355Z,4.33
2018-07-19T17:35:28.668Z,4.17
2018-07-19T17:38:02.974Z,3.00
2018-07-19T17:40:37.399Z,5.40
2018-07-19T17:43:11.602Z,5.57
2018-07-19T17:45:45.945Z,7.37
2018-07-19T17:48:20.481Z,4.37
2018-07-19T17:50:54.693Z,4.20
2018-07-19T17:53:28.992Z,5.73
2018-07-19T17:56:03.406Z,5.67
2018-07-19T17:58:37.856Z,4.40
2018-07-19T18:01:13.025Z,4.50
2018-07-19T18:03:47.251Z,4.33
2018-07-19T18:06:21.747Z,4.37
2018-07-19T18:08:56.041Z,5.60
2018-07-19T18:11:30.409Z,6.20
2018-07-19T18:14:04.901Z,5.70
2018-07-19T18:16:39.393Z,4.70
2018-07-19T18:19:13.914Z,7.47
2018-07-19T18:21:48.314Z,3.80
2018-07-19T18:24:22.634Z,4.08
2018-07-19T18:26:56.970Z,4.17
2018-07-19T18:29:31.288Z,3.92
2018-07-19T18:32:05.652Z,5.40
2018-07-19T18:34:40.118Z,4.42
2018-07-19T18:37:14.658Z,4.80
2018-07-19T18:39:48.761Z,3.87
2018-07-19T18:42:23.329Z,4.05
2018-07-19T18:44:57.747Z,4.60
2018-07-19T18:47:32.160Z,4.10
2018-07-19T18:50:06.663Z,3.80
2018-07-19T18:52:41.119Z,3.65
2018-07-19T18:55:15.739Z,4.55
2018-07-19T18:57:50.183Z,5.28
2018-07-19T19:00:24.471Z,5.25
2018-07-19T19:02:58.920Z,4.70
2018-07-19T19:05:33.607Z,4.55
2018-07-19T19:08:08.299Z,4.85
2018-07-19T19:10:43.020Z,4.37
2018-07-19T19:13:17.449Z,4.95
2018-07-19T19:15:51.958Z,4.45
2018-07-19T19:18:26.359Z,4.55
2018-07-19T19:21:01.061Z,4.95
2018-07-19T19:23:35.619Z,4.40
2018-07-19T19:26:10.292Z,4.60
2018-07-19T19:28:44.767Z,4.78
2018-07-19T19:31:19.325Z,5.05
2018-07-19T19:33:54.005Z,5.28
2018-07-19T19:36:28.640Z,5.12
2018-07-19T19:39:03.152Z,5.35
2018-07-19T19:41:37.501Z,5.00
2018-07-19T19:44:12.706Z,4.80
2018-07-19T19:46:47.061Z,4.80
2018-07-19T19:49:21.385Z,5.25
2018-07-19T19:51:56.101Z,5.17
2018-07-19T19:54:30.624Z,5.60
2018-07-19T19:57:05.459Z,5.90
2018-07-19T19:59:39.993Z,5.62
2018-07-19T20:02:14.580Z,6.12
2018-07-19T20:04:49.107Z,5.70
2018-07-19T20:07:23.494Z,5.83
2018-07-19T20:09:58.053Z,5.20
2018-07-19T20:12:33.369Z,5.75
2018-07-19T20:15:08.553Z,5.50
2018-07-19T20:17:43.025Z,6.00
2018-07-19T20:20:17.335Z,5.80
2018-07-19T20:22:51.826Z,5.40
2018-07-19T20:25:26.174Z,5.72
2018-07-19T20:28:00.854Z,5.40
2018-07-19T20:30:35.228Z,7.97
2018-07-19T20:33:09.711Z,6.10
2018-07-19T20:35:45.154Z,8.65
2018-07-19T20:38:19.551Z,8.78
2018-07-19T20:40:53.918Z,6.87
2018-07-19T20:43:28.476Z,6.25
2018-07-19T20:46:03.015Z,6.12
2018-07-19T20:48:37.570Z,6.05
2018-07-19T20:51:12.144Z,6.60
2018-07-19T20:53:46.680Z,7.12
2018-07-19T20:56:20.974Z,6.10
2018-07-19T20:58:55.379Z,6.28
2018-07-19T21:01:29.964Z,7.05
2018-07-19T21:04:04.361Z,7.20
2018-07-19T21:06:38.685Z,6.97
2018-07-19T21:09:13.169Z,6.62
2018-07-19T21:11:47.607Z,6.30
2018-07-19T21:14:22.015Z,6.17
2018-07-19T21:16:56.490Z,6.40
2018-07-19T21:19:30.955Z,7.05
2018-07-19T21:22:05.542Z,6.12
2018-07-19T21:24:39.881Z,6.62
2018-07-19T21:27:14.283Z,6.05
2018-07-19T21:29:49.135Z,6.25
2018-07-19T21:32:23.562Z,7.25
2018-07-19T21:34:57.938Z,7.17
2018-07-19T21:37:32.474Z,9.55
2018-07-19T21:40:06.895Z,7.20
2018-07-19T21:42:41.580Z,6.37
2018-07-19T21:45:16.037Z,7.40
2018-07-19T21:47:50.373Z,7.00
2018-07-19T21:50:24.659Z,6.50
2018-07-19T21:52:59.078Z,6.15
2018-07-19T21:55:33.374Z,6.25
2018-07-19T21:58:07.805Z,6.72
2018-07-19T22:00:47.563Z,6.78
2018-07-19T22:03:21.882Z,7.53
2018-07-19T22:05:56.420Z,6.15
2018-07-19T22:08:30.878Z,6.87
2018-07-19T22:11:05.175Z,6.60
2018-07-19T22:13:39.439Z,6.15
2018-07-19T22:16:13.780Z,6.17
2018-07-19T22:18:48.116Z,6.15
2018-07-19T22:21:22.466Z,6.05
2018-07-19T22:23:56.747Z,6.03
2018-07-19T22:26:31.307Z,6.65
2018-07-19T22:29:06.342Z,6.53
2018-07-19T22:31:40.675Z,7.00
2018-07-19T22:34:15.115Z,7.25
2018-07-19T22:36:49.461Z,7.12
2018-07-19T22:39:23.998Z,8.25
2018-07-19T22:41:58.998Z,7.50
2018-07-19T22:44:33.405Z,9.75
2018-07-19T22:47:07.737Z,9.30
2018-07-19T22:49:42.174Z,6.85
2018-07-19T22:52:16.633Z,7.67
2018-07-19T22:54:50.955Z,7.15
2018-07-19T22:57:25.445Z,7.50
2018-07-19T22:59:59.846Z,6.85
2018-07-19T23:02:34.165Z,6.72
2018-07-19T23:05:08.626Z,6.42
2018-07-19T23:07:42.919Z,6.97
2018-07-19T23:10:17.375Z,7.42
2018-07-19T23:12:51.836Z,8.05
2018-07-19T23:15:26.044Z,7.17
2018-07-19T23:18:00.411Z,7.40
2018-07-19T23:20:34.668Z,6.90
2018-07-19T23:23:09.059Z,7.30
2018-07-19T23:25:43.470Z,7.75
2018-07-19T23:28:17.807Z,7.78
2018-07-19T23:30:52.151Z,6.65
2018-07-19T23:33:26.661Z,7.30
2018-07-19T23:36:11.605Z,6.70
2018-07-19T23:38:51.254Z,7.35
2018-07-19T23:41:30.590Z,7.10
2018-07-19T23:44:09.212Z,6.78
2018-07-19T23:46:48.265Z,7.97
2018-07-19T23:49:22.471Z,9.05
2018-07-19T23:51:56.755Z,8.85
2018-07-19T23:54:31.186Z,8.60
2018-07-19T23:57:05.486Z,8.08
2018-07-19T23:59:39.849Z,7.58
